• Join FlightAware (Why Join?)
  • Login
  • US Flag 
03:25AM EDT


 

Airport Tracker/Info


-or-


 

Live Flight TrackerFlight Track Log ✈ LXJ524 ✈ 09-Jun-2014 ✈ KACK - KMDW

Flight Track Log - Related Links

Times and Time Zones

All times are in EDT time to prevent confusion due to time zone crossing. See the LXJ524 flight status page for this flight to view local times or setup timezone preferences in your user account.

Time Position Orientation Groundspeed Altitude Reporting Facility
EDT Latitude Longitude Course Direction KTS MPH feet Rate Location/Type
01:25PM 41.2311 -70.1236 North 202 232 2,600  Level Boston Center
01:26PM 41.2422 -70.2125 279° West 258 297 7,000 3,900 Climbing Boston Center
01:27PM 41.3211 -70.2297 351° North 305 351 10,600 3,540 Climbing Boston Center
01:28PM 41.4111 -70.2053 12° North 330 380 14,300 3,540 Climbing Boston Center
01:29PM 41.5075 -70.1828 10° North 350 403 17,900 3,120 Climbing Boston Center
01:30PM 41.7845 -70.0333 North  Level FlightAware Approximate
01:30PM 41.6078 -70.2558 331° Northwest 367 422 20,800  Level Boston Center
01:31PM 41.6953 -70.3328 327° Northwest 372 428 24,000 2,400 Climbing Boston Center
01:32PM 41.7769 -70.4083 325° Northwest 363 418 25,800 1,380 Climbing Boston Center
01:33PM 41.8692 -70.4944 325° Northwest 362 417 26,900 1,020 Climbing Boston Center
01:34PM 41.9431 -70.5956 315° West 387 445 28,000 1,020 Climbing Boston Center
01:35PM 41.9950 -70.7231 299° West 388 447 29,000 900 Climbing Boston Center
01:36PM 42.0475 -70.8522 299° West 391 450 29,900 1,200 Climbing Boston Center
01:37PM 42.0997 -70.9875 298° West 405 466 31,500 1,980 Climbing Boston Center
01:38PM 42.1542 -71.1219 299° West 411 473 34,000 2,160 Climbing Boston Center
01:39PM 42.2114 -71.2650 298° West 397 457 36,000 1,560 Climbing Boston Center
01:40PM 42.2628 -71.3972 298° West 397 457 37,300 1,560 Climbing Boston Center
01:41PM 42.3114 -71.5247 297° West 390 449 39,200 1,620 Climbing Boston Center
01:42PM 42.3592 -71.6483 298° West 378 435 40,700 1,260 Climbing Boston Center
01:43PM 42.4061 -71.7689 298° West 368 423 41,900 1,020 Climbing Boston Center
01:44PM 42.4489 -71.8903 296° West 362 417 42,900 480 Climbing Boston Center
01:45PM 42.4678 -72.0525 279° West 363 418 43,000  Climbing Boston Center
01:46PM 42.4817 -72.1936 278° West 377 434 43,000  Level Boston Center
01:47PM 42.4972 -72.3256 279° West 378 435 43,000  Level Boston Center
01:48PM 42.5117 -72.4653 278° West 378 435 43,000  Level Boston Center
01:49PM 42.5253 -72.6050 278° West 378 435 43,000  Level Boston Center
01:50PM 42.5422 -72.7706 278° West 375 432 43,000  Level Boston Center
01:51PM 42.5564 -72.9092 278° West 375 432 43,000  Level Boston Center
01:52PM 42.5694 -73.0486 277° West 375 432 43,000  Level Boston Center
01:54PM 42.5842 -73.1889 278° West 375 432 43,000  Level Boston Center
01:55PM 42.5981 -73.3281 278° West 375 432 43,000  Level Boston Center
01:56PM 42.6106 -73.4669 277° West 375 432 43,000  Level Boston Center
01:57PM 42.6236 -73.6067 277° West 375 432 43,000  Level Boston Center
01:58PM 42.6389 -73.7764 277° West 375 432 43,000  Level Boston Center
01:59PM 42.6514 -73.9197 277° West 378 435 43,000  Level Boston Center
02:00PM 42.6639 -74.0619 277° West 379 436 43,000  Level Boston Center
02:01PM 42.6539 -74.2058 265° West 383 441 43,000  Level Boston Center
02:02PM 42.6456 -74.3497 266° West 383 441 43,000  Level Boston Center
02:03PM 42.6369 -74.4925 265° West 383 441 43,000  Level Boston Center
02:04PM 42.6272 -74.6347 265° West 381 438 43,000  Level Boston Center
02:05PM 42.6183 -74.7764 265° West 379 436 43,000  Level Boston Center
02:06PM 42.6072 -74.9447 265° West 377 434 43,000  Level Boston Center
02:07PM 42.5978 -75.0867 265° West 377 434 43,000  Level Boston Center
02:08PM 42.5883 -75.2278 265° West 377 434 43,000  Level Boston Center
02:09PM 42.5789 -75.3669 265° West 372 428 43,000  Level Boston Center
02:10PM 42.5692 -75.5078 265° West 375 432 43,000  Level Boston Center
02:11PM 42.5581 -75.6478 264° West 374 430 43,000  Level Boston Center
02:12PM 42.5461 -75.7883 263° West 374 430 43,000  Level Boston Center
02:13PM 42.5372 -75.9294 265° West 374 430 43,000  Level Boston Center
02:14PM 42.5236 -76.0989 264° West 375 432 43,000  Level Boston Center
02:15PM 42.5144 -76.2400 265° West 376 433 43,000  Level Boston Center
02:16PM 42.5017 -76.3883 263° West 378 435 43,000  Level Boston Center
02:17PM 42.4828 -76.5303 260° West 380 437 43,000  Level Boston Center
02:18PM 42.4594 -76.6697 257° West 380 437 43,000  Level Boston Center
02:19PM 42.4342 -76.8103 256° West 382 440 43,000  Level Boston Center
02:20PM 42.4094 -76.9497 257° West 382 440 43,000  Level Boston Center
02:21PM 42.3844 -77.0908 257° West 383 441 43,000  Level Boston Center
02:22PM 42.3600 -77.2328 257° West 384 442 43,000  Level Boston Center
02:24PM 42.3244 -77.4297 256° West 384 442 43,000  Level Cleveland Center
02:25PM 42.2925 -77.5994 256° West 385 443 43,000  Level Cleveland Center
02:26PM 42.2672 -77.7406 256° West 385 443 43,000  Level Cleveland Center
02:27PM 42.2411 -77.8811 256° West 385 443 43,000  Level Cleveland Center
02:28PM 42.2161 -78.0231 257° West 385 443 43,000  Level Cleveland Center
02:29PM 42.1894 -78.1636 256° West 385 443 43,000  Level Cleveland Center
02:30PM 42.1642 -78.3017 256° West 393 452 43,000  Level Cleveland Center
02:31PM 42.1317 -78.4692 255° West 392 451 43,000  Level Cleveland Center
02:32PM 42.1042 -78.6097 255° West 390 449 43,000  Level Cleveland Center
02:33PM 42.0772 -78.7511 256° West 392 451 43,000  Level Cleveland Center
02:34PM 42.0494 -78.8914 255° West 392 451 43,000  Level Cleveland Center
02:35PM 42.0167 -79.0608 255° West 393 452 43,000  Level Cleveland Center
02:36PM 41.9889 -79.2042 255° West 398 458 43,000  Level Cleveland Center
02:37PM 41.9600 -79.3475 255° West 399 459 43,000  Level Cleveland Center
02:38PM 41.9308 -79.4914 255° West 401 461 43,000  Level Cleveland Center
02:39PM 41.8983 -79.6539 255° West 401 461 43,000  Level Cleveland Center
02:40PM 41.8678 -79.8006 254° West 403 464 43,000  Level Cleveland Center
02:41PM 41.8375 -79.9436 254° West 400 460 43,000  Level Cleveland Center
02:42PM 41.8083 -80.0881 255° West 399 459 43,000  Level Cleveland Center
02:43PM 41.7789 -80.2311 255° West 397 457 43,000  Level Cleveland Center
02:44PM 41.7483 -80.3744 254° West 397 457 43,000  Level Cleveland Center
02:45PM 41.7131 -80.5417 254° West 397 457 43,000  Level Cleveland Center
02:46PM 41.6842 -80.6853 255° West 397 457 43,000  Level Cleveland Center
02:48PM 41.6528 -80.8281 254° West 397 457 43,000  Level Cleveland Center
02:49PM 41.6228 -80.9703 254° West 396 456 43,000  Level Cleveland Center
02:50PM 41.5919 -81.1136 254° West 396 456 43,000  Level Cleveland Center
02:51PM 41.5775 -81.2581 262° West 394 453 43,000  Level Cleveland Center
02:52PM 41.5753 -81.4303 269° West 393 452 43,000  Level Cleveland Center
02:53PM 41.5736 -81.5786 269° West 398 458 43,000  Level Cleveland Center
02:54PM 41.5703 -81.7275 268° West 399 459 43,000  Level Cleveland Center
02:55PM 41.5669 -81.8778 268° West 402 463 43,000  Level Cleveland Center
02:56PM 41.5642 -82.0283 269° West 403 464 43,000  Level Cleveland Center
02:57PM 41.5606 -82.2047 268° West 405 466 43,000  Level Cleveland Center
02:58PM 41.5569 -82.3553 268° West 405 466 43,000  Level Cleveland Center
02:59PM 41.5539 -82.5072 269° West 405 466 43,000  Level Cleveland Center
03:00PM 41.5492 -82.6586 268° West 405 466 43,000  Level Cleveland Center
03:01PM 41.5453 -82.8094 268° West 405 466 43,000  Level Cleveland Center
03:02PM 41.5417 -82.9592 268° West 404 465 43,000  Level Cleveland Center
03:03PM 41.5367 -83.1111 268° West 404 465 43,000  Level Cleveland Center
03:04PM 41.5311 -83.2667 267° West 404 465 43,000  Level Cleveland Center
03:05PM 41.5267 -83.4161 268° West 404 465 43,000  Level Cleveland Center
03:06PM 41.5203 -83.5925 267° West 400 460 43,000 -60 Level Cleveland Center
03:07PM 41.5169 -83.7383 268° West 397 457 42,900 -1,020 Descending Cleveland Center
03:08PM 41.5106 -83.8867 267° West 398 458 40,900 -1,980 Descending Cleveland Center
03:09PM 41.5058 -84.0331 268° West 399 459 38,800 -2,040 Descending Cleveland Center
03:10PM 41.5000 -84.1792 267° West 395 455 36,700 -2,280 Descending Cleveland Center
03:11PM 41.4933 -84.3539 267° West 413 475 34,200 -2,340 Descending Cleveland Center
03:12PM 41.4861 -84.5128 267° West 425 489 31,900 -2,040 Descending Cleveland Center
03:13PM 41.4811 -84.6733 268° West 432 497 30,000 -960 Descending Cleveland Center
03:14PM 41.4881 -84.8286 273° West 425 489 30,000 -240 Level Cleveland Center
03:15PM 41.4939 -84.9853 273° West 426 490 29,600 -1,080 Descending Chicago Center
03:16PM 41.5000 -85.1469 273° West 428 493 27,900 -1,800 Descending Chicago Center
03:17PM 41.5050 -85.3125 272° West 437 503 26,000 -1,800 Descending Chicago Center
03:18PM 41.5108 -85.4747 273° West 429 494 24,200 -1,620 Descending Chicago Center
03:19PM 41.5167 -85.6267 273° West 401 461 22,700 -1,560 Descending Chicago Center
03:21PM 41.5189 -85.7767 271° West 401 461 21,000 -1,620 Descending Chicago Center
03:22PM 41.5217 -85.9289 271° West 403 464 19,400 -2,160 Descending Chicago Center
03:23PM 41.5250 -86.1017 272° West 383 441 16,600 -2,640 Descending Chicago Center
03:24PM 41.5244 -86.2322 270° West 352 405 14,000 -2,460 Descending Chicago Center
03:25PM 41.5231 -86.3556 269° West 332 382 11,600 -1,620 Descending Chicago Center
03:26PM 41.5228 -86.4811 270° West 334 384 10,700 -780 Descending Chicago Center
03:27PM 41.5214 -86.5869 269° West 289 333 10,000 -780 Descending Chicago Center
03:28PM 41.5203 -86.6900 269° West 279 321 9,100 -960 Descending Chicago Center
03:29PM 41.5208 -86.8197 270° West 280 322 8,100 -1,200 Descending Chicago Center
03:30PM 41.5208 -86.9253 270° West 285 328 6,600 -1,020 Descending Chicago Center
03:31PM 41.5183 -87.0367 268° West 282 325 6,000 -300 Descending Chicago Center
03:32PM 41.5172 -87.1400 269° West 279 321 6,000 -300 Level Chicago Center
03:33PM 41.5214 -87.2439 273° West 280 322 5,500 -780 Descending Chicago Center
03:34PM 41.5278 -87.3539 274° West 276 318 4,400 -780 Descending Chicago Center
03:35PM 41.5328 -87.4533 274° West 272 313 4,000 -240 Descending Chicago Center
03:36PM 41.5383 -87.5583 274° West 267 307 4,000  Level Chicago Center
03:37PM 41.5439 -87.6564 274° West 265 305 4,000 -60 Level Chicago Center
03:38PM 41.5572 -87.7594 280° West 264 304 3,900 -660 Descending Chicago Center
03:39PM 41.5914 -87.8431 299° West 255 293 2,700 -720 Descending Chicago Center
03:40PM 41.6206 -87.9089 301° West 205 236 2,500 -120 Descending Chicago Center
03:41PM 41.6694 -87.8853 20° North 180 207 2,500  Level Chicago Center
03:42PM 41.7103 -87.8461 36° Northeast 180 207 2,500 -420 Level Chicago Center
03:43PM 41.7439 -87.8053 42° Northeast 156 180 1,700 -780 Descending Chicago Center
03:44PM 41.7722 -87.7722 41° Northeast 128 147 900 -480 Descending Chicago Center
03:45PM 41.7922 -87.7467 44° Northeast 125 144 700 -240 Descending Chicago Center